createdAt,value
2022-12-17T00:02:29.161Z,21.93
2022-12-17T00:06:49.697Z,22.20
2022-12-17T00:11:10.391Z,24.23
2022-12-17T00:15:30.676Z,29.73
2022-12-17T00:19:51.051Z,26.40
2022-12-17T00:24:14.851Z,22.77
2022-12-17T00:28:34.869Z,21.73
2022-12-17T00:32:55.358Z,22.57
2022-12-17T00:37:15.757Z,21.93
2022-12-17T00:41:36.089Z,21.83
2022-12-17T00:45:56.238Z,21.93
2022-12-17T00:50:16.623Z,21.90
2022-12-17T00:54:37.153Z,22.13
2022-12-17T00:58:57.482Z,22.23
2022-12-17T01:03:29.365Z,23.13
2022-12-17T01:07:49.710Z,22.97
2022-12-17T01:12:09.706Z,22.93
2022-12-17T01:16:32.773Z,22.10
2022-12-17T01:20:53.060Z,24.00
2022-12-17T01:25:14.384Z,20.90
2022-12-17T01:29:35.181Z,21.47
2022-12-17T01:33:55.509Z,21.90
2022-12-17T01:38:15.993Z,21.60
2022-12-17T01:42:36.540Z,23.87
2022-12-17T01:47:00.978Z,22.63
2022-12-17T01:51:21.255Z,21.67
2022-12-17T01:55:41.433Z,23.17
2022-12-17T02:00:16.179Z,22.50
2022-12-17T02:04:36.272Z,22.40
2022-12-17T02:09:25.287Z,22.57
2022-12-17T02:13:58.532Z,23.00
2022-12-17T02:18:21.405Z,23.87
2022-12-17T02:23:18.203Z,22.77
2022-12-17T02:27:38.812Z,23.40
2022-12-17T02:32:00.646Z,23.80
2022-12-17T02:36:24.594Z,22.27
2022-12-17T02:40:44.802Z,21.93
2022-12-17T02:45:05.003Z,24.07
2022-12-17T02:49:25.219Z,23.97
2022-12-17T02:53:45.779Z,24.27
2022-12-17T02:58:06.460Z,22.63
2022-12-17T03:02:33.311Z,22.80
2022-12-17T03:07:00.406Z,23.10
2022-12-17T03:11:27.189Z,23.07
2022-12-17T03:15:54.104Z,23.47
2022-12-17T03:20:21.101Z,22.33
2022-12-17T03:24:41.755Z,22.57
2022-12-17T03:29:02.168Z,23.10
2022-12-17T03:33:22.421Z,22.73
2022-12-17T03:37:43.150Z,23.87
2022-12-17T03:42:03.944Z,22.47
2022-12-17T03:46:24.359Z,22.53
2022-12-17T03:50:44.480Z,22.63
2022-12-17T03:55:04.591Z,21.30
2022-12-17T03:59:24.884Z,21.97
2022-12-17T04:03:45.042Z,22.33
2022-12-17T04:08:05.658Z,23.30
2022-12-17T04:12:25.936Z,22.50
2022-12-17T04:16:45.911Z,22.37
2022-12-17T04:21:05.912Z,21.83
2022-12-17T04:25:26.852Z,22.50
2022-12-17T04:29:47.370Z,22.33
2022-12-17T04:34:07.386Z,22.27
2022-12-17T04:38:27.762Z,22.37
2022-12-17T04:42:48.148Z,22.50
2022-12-17T04:47:08.817Z,23.77
2022-12-17T04:51:29.019Z,20.87
2022-12-17T04:56:06.126Z,23.07
2022-12-17T05:00:27.216Z,23.43
2022-12-17T05:04:47.426Z,22.83
2022-12-17T05:09:08.071Z,19.23
2022-12-17T05:13:28.391Z,21.80
2022-12-17T05:17:49.862Z,21.80
2022-12-17T05:22:10.475Z,20.90
2022-12-17T05:26:42.332Z,21.17
2022-12-17T05:31:02.721Z,22.57
2022-12-17T05:35:23.497Z,22.87
2022-12-17T05:39:43.547Z,23.23
2022-12-17T05:44:03.835Z,22.13
2022-12-17T05:48:24.170Z,22.07
2022-12-17T05:52:44.188Z,21.27
2022-12-17T05:57:04.584Z,22.03
2022-12-17T06:01:25.471Z,21.23
2022-12-17T06:05:48.541Z,22.73
2022-12-17T06:10:08.556Z,22.87
2022-12-17T06:14:28.877Z,21.97
2022-12-17T06:18:49.161Z,21.50
2022-12-17T06:23:27.941Z,22.07
2022-12-17T06:27:48.059Z,21.97
2022-12-17T06:32:08.453Z,22.90
2022-12-17T06:36:28.791Z,22.53
2022-12-17T06:40:49.171Z,23.07
2022-12-17T06:45:09.470Z,22.67
2022-12-17T06:49:30.402Z,21.77
2022-12-17T06:53:50.832Z,24.10
2022-12-17T06:58:17.770Z,24.27
2022-12-17T07:02:38.325Z,24.20
2022-12-17T07:06:58.762Z,24.73
2022-12-17T07:11:20.171Z,24.57
2022-12-17T07:15:40.981Z,23.80
2022-12-17T07:20:05.137Z,25.13
2022-12-17T07:24:26.255Z,26.00
2022-12-17T07:28:46.809Z,25.20
2022-12-17T07:33:16.549Z,26.87
2022-12-17T07:37:36.764Z,22.97
2022-12-17T07:41:57.212Z,25.80
2022-12-17T07:46:17.276Z,26.70
2022-12-17T07:50:37.347Z,25.50
2022-12-17T07:54:59.958Z,27.53
2022-12-17T07:59:20.232Z,28.83
2022-12-17T08:03:41.684Z,26.90
2022-12-17T08:08:02.233Z,27.87
2022-12-17T08:12:22.658Z,25.73
2022-12-17T08:16:44.780Z,28.13
2022-12-17T08:21:05.167Z,29.80
2022-12-17T08:25:26.158Z,28.77
2022-12-17T08:29:46.703Z,27.60
2022-12-17T08:34:08.127Z,29.20
2022-12-17T08:38:28.774Z,28.70
2022-12-17T08:42:49.305Z,30.07
2022-12-17T08:47:09.332Z,30.17
2022-12-17T08:51:29.574Z,29.20
2022-12-17T08:55:50.158Z,26.47
2022-12-17T09:00:10.205Z,28.33
2022-12-17T09:04:30.663Z,27.53
2022-12-17T09:08:51.060Z,28.93
2022-12-17T09:13:11.610Z,28.23
2022-12-17T09:17:32.081Z,29.07
2022-12-17T09:21:52.296Z,27.47
2022-12-17T09:26:13.794Z,27.93
2022-12-17T09:30:34.474Z,27.73
2022-12-17T09:34:55.054Z,27.87
2022-12-17T09:39:15.637Z,27.00
2022-12-17T09:44:06.203Z,28.47
2022-12-17T09:48:38.634Z,25.80
2022-12-17T09:53:00.007Z,27.17
2022-12-17T09:57:20.101Z,26.00
2022-12-17T10:02:00.019Z,28.03
2022-12-17T10:06:35.379Z,25.20
2022-12-17T10:10:55.668Z,24.47
2022-12-17T10:15:16.457Z,22.60
2022-12-17T10:19:51.392Z,22.20
2022-12-17T10:24:23.015Z,20.23
2022-12-17T10:28:43.753Z,20.13
2022-12-17T10:33:14.184Z,20.70
2022-12-17T10:37:37.940Z,20.23
2022-12-17T10:42:00.722Z,20.23
2022-12-17T10:46:21.498Z,19.90
2022-12-17T10:50:44.867Z,17.43
2022-12-17T10:55:15.448Z,18.03
2022-12-17T10:59:56.188Z,17.17
2022-12-17T11:04:17.465Z,19.40
2022-12-17T11:08:38.269Z,20.87
2022-12-17T11:13:09.737Z,19.73
2022-12-17T11:17:33.744Z,19.97
2022-12-17T11:22:06.939Z,21.83
2022-12-17T11:26:32.838Z,21.57
2022-12-17T11:31:02.030Z,19.43
2022-12-17T11:35:33.168Z,21.93
2022-12-17T11:40:04.247Z,20.80
2022-12-17T11:44:45.161Z,20.97
2022-12-17T11:49:12.405Z,21.10
2022-12-17T11:54:06.203Z,22.07
2022-12-17T11:58:55.376Z,21.90
2022-12-17T12:03:48.553Z,21.23
2022-12-17T12:08:48.363Z,21.07
2022-12-17T12:13:43.413Z,20.53
2022-12-17T12:18:12.852Z,21.20
2022-12-17T12:22:48.900Z,20.97
2022-12-17T12:27:37.734Z,20.37
2022-12-17T12:32:11.757Z,20.43
2022-12-17T12:36:34.709Z,18.70
2022-12-17T12:41:35.725Z,19.13
2022-12-17T12:46:14.577Z,18.07
2022-12-17T12:50:48.733Z,18.27
2022-12-17T12:55:17.889Z,18.27
2022-12-17T12:59:56.042Z,18.47
2022-12-17T13:04:16.995Z,18.23
2022-12-17T13:08:24.683Z,17.57
2022-12-17T13:12:45.299Z,18.63
2022-12-17T13:16:49.026Z,19.57
2022-12-17T13:21:20.873Z,19.30
2022-12-17T13:25:24.775Z,17.57
2022-12-17T13:29:35.814Z,17.77
2022-12-17T13:33:59.876Z,19.00
2022-12-17T13:38:45.660Z,17.77
2022-12-17T13:42:51.647Z,17.00
2022-12-17T13:46:54.270Z,17.40
2022-12-17T13:51:01.995Z,17.00
2022-12-17T13:55:17.565Z,16.80
2022-12-17T13:59:22.517Z,17.33
2022-12-17T14:03:43.178Z,16.27
2022-12-17T14:07:46.647Z,15.40
2022-12-17T14:12:07.736Z,14.90
2022-12-17T14:16:14.193Z,14.87
2022-12-17T14:20:23.862Z,15.07
2022-12-17T14:24:31.101Z,14.23
2022-12-17T14:28:46.015Z,13.20
2022-12-17T14:32:51.997Z,13.33
2022-12-17T14:36:56.730Z,12.10
2022-12-17T14:41:35.951Z,11.77
2022-12-17T14:46:19.826Z,13.73
2022-12-17T14:50:22.830Z,13.77
2022-12-17T14:58:50.880Z,12.87
2022-12-17T15:02:57.611Z,13.00
2022-12-17T15:06:59.711Z,11.33
2022-12-17T15:11:01.762Z,12.03
2022-12-17T15:15:03.985Z,11.67
2022-12-17T15:19:05.836Z,12.67
2022-12-17T15:23:17.522Z,14.73
2022-12-17T15:27:19.380Z,15.77
2022-12-17T15:31:24.959Z,15.57
2022-12-17T15:35:28.644Z,14.40
2022-12-17T15:39:30.501Z,15.73
2022-12-17T15:43:32.258Z,15.23
2022-12-17T15:47:34.061Z,15.00
2022-12-17T15:51:35.844Z,15.40
2022-12-17T15:55:38.256Z,15.53
2022-12-17T15:59:40.204Z,15.23
2022-12-17T16:03:42.398Z,16.27
2022-12-17T16:07:44.480Z,16.47
2022-12-17T16:11:46.335Z,15.20
2022-12-17T16:16:04.288Z,14.97
2022-12-17T16:20:07.229Z,15.33
2022-12-17T16:24:10.792Z,15.07
2022-12-17T16:28:14.985Z,15.57
2022-12-17T16:32:17.218Z,15.63
2022-12-17T16:36:20.911Z,16.13
2022-12-17T16:40:22.800Z,16.77
2022-12-17T16:44:24.659Z,16.47
2022-12-17T16:48:26.492Z,16.07
2022-12-17T16:52:28.340Z,16.87
2022-12-17T16:56:32.830Z,16.80
2022-12-17T17:00:38.463Z,17.80
2022-12-17T17:04:40.333Z,15.77
2022-12-17T17:08:42.235Z,15.87
2022-12-17T17:12:44.046Z,16.23
2022-12-17T17:16:46.169Z,16.47
2022-12-17T17:20:48.051Z,17.70
2022-12-17T17:24:49.896Z,18.80
2022-12-17T17:28:52.033Z,18.27
2022-12-17T17:32:53.835Z,19.43
2022-12-17T17:36:55.805Z,20.40
2022-12-17T17:40:58.110Z,19.97
2022-12-17T17:44:59.898Z,19.00
2022-12-17T17:49:04.100Z,21.20
2022-12-17T17:53:06.406Z,20.67
2022-12-17T17:57:09.431Z,19.13
2022-12-17T18:01:13.582Z,18.83
2022-12-17T18:05:16.063Z,17.83
2022-12-17T18:09:18.040Z,19.37
2022-12-17T18:13:39.655Z,17.80
2022-12-17T18:17:42.149Z,17.10
2022-12-17T18:21:46.891Z,19.27
2022-12-17T18:25:53.702Z,22.13
2022-12-17T18:29:55.532Z,25.13
2022-12-17T18:34:01.050Z,29.07
2022-12-17T18:38:03.121Z,28.37
2022-12-17T18:42:23.855Z,29.27
2022-12-17T18:46:26.508Z,27.47
2022-12-17T18:50:28.480Z,25.90
2022-12-17T18:54:31.096Z,26.67
2022-12-17T18:58:36.240Z,27.57
2022-12-17T19:02:42.105Z,26.63
2022-12-17T19:06:45.471Z,25.47
2022-12-17T19:10:47.629Z,27.60
2022-12-17T19:14:50.142Z,24.70
2022-12-17T19:18:54.108Z,22.77
2022-12-17T19:22:58.270Z,24.23
2022-12-17T19:27:05.650Z,24.77
2022-12-17T19:31:09.078Z,24.23
2022-12-17T19:35:11.280Z,24.03
2022-12-17T19:39:19.656Z,23.97
2022-12-17T19:43:23.967Z,25.37
2022-12-17T19:47:26.023Z,27.07
2022-12-17T19:51:29.789Z,24.87
2022-12-17T19:55:31.756Z,25.80
2022-12-17T19:59:33.714Z,26.33
2022-12-17T20:03:36.179Z,25.27
2022-12-17T20:07:39.957Z,26.87
2022-12-17T20:11:41.867Z,25.23
2022-12-17T20:15:43.838Z,28.10
2022-12-17T20:19:45.791Z,25.87
2022-12-17T20:23:48.892Z,25.33
2022-12-17T20:27:50.706Z,25.60
2022-12-17T20:31:53.493Z,24.80
2022-12-17T20:35:56.271Z,25.60
2022-12-17T20:39:58.340Z,24.93
2022-12-17T20:44:13.496Z,23.97
2022-12-17T20:48:15.687Z,26.37
2022-12-17T20:52:20.210Z,26.53
2022-12-17T20:56:25.289Z,26.47
2022-12-17T21:00:27.635Z,26.63
2022-12-17T21:04:30.004Z,27.80
2022-12-17T21:08:34.867Z,29.20
2022-12-17T21:12:56.678Z,25.83
2022-12-17T21:17:00.456Z,25.53
2022-12-17T21:21:11.221Z,24.03
2022-12-17T21:25:13.625Z,24.90
2022-12-17T21:29:22.935Z,23.33
2022-12-17T21:33:32.817Z,24.00
2022-12-17T21:37:35.171Z,22.63
2022-12-17T21:41:39.322Z,20.83
2022-12-17T21:45:45.058Z,21.23
2022-12-17T21:49:47.068Z,22.27
2022-12-17T21:53:52.461Z,22.17
2022-12-17T21:57:56.160Z,21.90
2022-12-17T22:01:58.384Z,21.50
2022-12-17T22:06:09.392Z,21.90
2022-12-17T22:10:39.521Z,21.40
2022-12-17T22:14:33.772Z,22.13
2022-12-17T22:18:35.790Z,20.63
2022-12-17T22:22:37.925Z,21.43
2022-12-17T22:26:39.990Z,21.13
2022-12-17T22:31:03.895Z,23.13
2022-12-17T22:36:30.764Z,21.90
2022-12-17T22:43:58.023Z,25.47
2022-12-17T22:44:44.419Z,23.13
2022-12-17T22:48:15.484Z,21.80
2022-12-17T22:52:19.047Z,20.77
2022-12-17T22:56:32.511Z,20.07
2022-12-17T23:00:44.359Z,21.00
2022-12-17T23:04:47.525Z,21.60
2022-12-17T23:08:49.503Z,20.63
2022-12-17T23:12:52.047Z,20.50
2022-12-17T23:16:53.925Z,19.73
2022-12-17T23:20:55.821Z,20.77
2022-12-17T23:24:57.723Z,19.97
2022-12-17T23:29:02.170Z,21.93
2022-12-17T23:33:04.407Z,19.83
2022-12-17T23:37:06.298Z,20.73
2022-12-17T23:41:10.726Z,20.17
2022-12-17T23:45:12.679Z,21.50
2022-12-17T23:49:15.842Z,20.70
2022-12-17T23:53:17.747Z,21.87
2022-12-17T23:57:20.000Z,20.07
